createdAt,value
2018-04-29T00:01:54.373Z,7.10
2018-04-29T00:04:21.836Z,7.27
2018-04-29T00:06:49.317Z,7.93
2018-04-29T00:09:16.789Z,10.17
2018-04-29T00:11:44.238Z,7.50
2018-04-29T00:14:12.488Z,6.30
2018-04-29T00:16:39.956Z,6.20
2018-04-29T00:19:07.418Z,6.40
2018-04-29T00:21:34.888Z,6.97
2018-04-29T00:24:02.393Z,8.27
2018-04-29T00:26:29.796Z,6.87
2018-04-29T00:28:57.277Z,6.70
2018-04-29T00:31:25.505Z,11.30
2018-04-29T00:33:52.962Z,4.70
2018-04-29T00:36:20.424Z,6.63
2018-04-29T00:38:47.892Z,8.43
2018-04-29T00:41:15.352Z,10.70
2018-04-29T00:43:42.834Z,7.70
2018-04-29T00:46:11.061Z,10.93
2018-04-29T00:48:38.521Z,12.23
2018-04-29T00:51:05.989Z,5.07
2018-04-29T00:53:33.439Z,9.60
2018-04-29T00:56:00.904Z,9.10
2018-04-29T00:58:28.369Z,5.60
2018-04-29T01:00:55.821Z,6.73
2018-04-29T01:03:23.278Z,12.20
2018-04-29T01:05:50.750Z,5.50
2018-04-29T01:08:18.979Z,14.10
2018-04-29T01:10:46.425Z,6.77
2018-04-29T01:13:13.896Z,6.93
2018-04-29T01:15:41.369Z,6.97
2018-04-29T01:18:08.816Z,5.37
2018-04-29T01:20:36.298Z,9.90
2018-04-29T01:23:04.685Z,5.90
2018-04-29T01:25:32.095Z,7.90
2018-04-29T01:27:59.563Z,9.00
2018-04-29T01:30:27.021Z,11.10
2018-04-29T01:32:54.492Z,8.93
2018-04-29T01:35:21.941Z,7.40
2018-04-29T01:37:49.408Z,5.30
2018-04-29T01:40:16.882Z,5.57
2018-04-29T01:42:45.093Z,5.93
2018-04-29T01:45:12.549Z,9.10
2018-04-29T01:47:40.028Z,7.53
2018-04-29T01:50:07.505Z,10.70
2018-04-29T01:52:34.959Z,9.47
2018-04-29T01:55:02.455Z,7.73
2018-04-29T01:57:29.914Z,10.67
2018-04-29T01:59:57.372Z,6.87
2018-04-29T02:02:24.837Z,7.73
2018-04-29T02:04:52.289Z,8.43
2018-04-29T02:07:19.854Z,9.90
2018-04-29T02:09:47.321Z,6.87
2018-04-29T02:12:14.777Z,12.13
2018-04-29T02:14:42.250Z,9.23
2018-04-29T02:17:09.729Z,9.20
2018-04-29T02:19:37.176Z,8.03
2018-04-29T02:22:04.738Z,6.57
2018-04-29T02:24:32.240Z,12.20
2018-04-29T02:26:59.767Z,8.80
2018-04-29T02:29:27.312Z,8.83
2018-04-29T02:31:54.789Z,7.83
2018-04-29T02:34:23.048Z,6.87
2018-04-29T02:36:50.513Z,12.43
2018-04-29T02:39:18.764Z,6.10
2018-04-29T02:41:46.217Z,9.70
2018-04-29T02:44:13.677Z,7.60
2018-04-29T02:46:41.167Z,6.90
2018-04-29T02:49:08.615Z,12.40
2018-04-29T02:51:36.838Z,7.73
2018-04-29T02:54:04.324Z,9.10
2018-04-29T02:56:31.780Z,11.17
2018-04-29T02:58:59.304Z,7.67
2018-04-29T03:01:26.787Z,10.70
2018-04-29T03:03:54.245Z,5.90
2018-04-29T03:06:21.706Z,6.87
2018-04-29T03:08:49.185Z,5.27
2018-04-29T03:11:17.416Z,8.83
2018-04-29T03:13:44.868Z,7.17
2018-04-29T03:16:12.371Z,8.23
2018-04-29T03:18:39.836Z,8.87
2018-04-29T03:21:08.069Z,6.90
2018-04-29T03:23:35.537Z,18.57
2018-04-29T03:26:03.096Z,11.23
2018-04-29T03:28:30.496Z,11.20
2018-04-29T03:30:58.035Z,16.37
2018-04-29T03:33:26.265Z,20.03
2018-04-29T03:35:53.721Z,15.33
2018-04-29T03:38:21.205Z,15.87
2018-04-29T03:40:48.670Z,9.27
2018-04-29T03:43:16.165Z,10.97
2018-04-29T03:45:43.616Z,10.30
2018-04-29T03:48:11.078Z,14.33
2018-04-29T03:50:38.564Z,10.10
2018-04-29T03:53:06.013Z,7.43
2018-04-29T03:55:33.470Z,7.40
2018-04-29T03:58:12.880Z,7.43
2018-04-29T04:00:52.313Z,7.37
2018-04-29T04:03:31.793Z,8.97
2018-04-29T04:05:59.282Z,16.80
2018-04-29T04:08:26.740Z,10.07
2018-04-29T04:10:54.977Z,14.07
2018-04-29T04:13:22.441Z,12.30
2018-04-29T04:15:49.920Z,7.07
2018-04-29T04:18:17.387Z,9.97
2018-04-29T04:20:45.617Z,6.80
2018-04-29T04:23:13.097Z,9.50
2018-04-29T04:25:40.556Z,8.83
2018-04-29T04:28:08.017Z,5.40
2018-04-29T04:30:35.510Z,17.70
2018-04-29T04:33:02.965Z,12.30
2018-04-29T04:35:30.422Z,11.50
2018-04-29T04:37:57.905Z,10.33
2018-04-29T04:40:25.364Z,8.93
2018-04-29T04:42:52.821Z,8.90
2018-04-29T04:45:20.300Z,7.17
2018-04-29T04:47:47.764Z,8.83
2018-04-29T04:50:15.226Z,7.57
2018-04-29T04:52:42.801Z,7.90
2018-04-29T04:55:11.032Z,10.00
2018-04-29T04:57:38.489Z,10.73
2018-04-29T05:00:05.972Z,8.93
2018-04-29T05:02:33.421Z,12.00
2018-04-29T05:05:00.884Z,13.33
2018-04-29T05:07:28.372Z,9.80
2018-04-29T05:09:56.590Z,11.47
2018-04-29T05:12:24.049Z,10.00
2018-04-29T05:14:51.525Z,8.20
2018-04-29T05:17:18.992Z,12.67
2018-04-29T05:19:46.448Z,8.33
2018-04-29T05:22:14.142Z,12.00
2018-04-29T05:24:41.510Z,10.87
2018-04-29T05:27:08.966Z,15.10
2018-04-29T05:29:36.440Z,10.43
2018-04-29T05:32:03.899Z,11.33
2018-04-29T05:34:31.354Z,11.83
2018-04-29T05:36:58.824Z,9.03
2018-04-29T05:39:26.286Z,9.93
2018-04-29T05:41:55.246Z,8.20
2018-04-29T05:44:22.732Z,12.97
2018-04-29T05:46:50.195Z,9.10
2018-04-29T05:49:17.657Z,9.33
2018-04-29T05:51:45.125Z,12.30
2018-04-29T05:54:13.355Z,6.67
2018-04-29T05:56:40.857Z,9.37
2018-04-29T05:59:09.109Z,8.13
2018-04-29T06:01:38.088Z,9.87
2018-04-29T06:04:06.265Z,12.67
2018-04-29T06:06:33.808Z,8.97
2018-04-29T06:09:01.196Z,10.57
2018-04-29T06:11:30.160Z,14.13
2018-04-29T06:13:57.661Z,11.83
2018-04-29T06:16:25.129Z,13.33
2018-04-29T06:18:53.344Z,7.00
2018-04-29T06:21:20.825Z,10.87
2018-04-29T06:23:48.306Z,8.20
2018-04-29T06:26:16.570Z,8.63
2018-04-29T06:28:44.013Z,7.57
2018-04-29T06:31:11.473Z,8.87
2018-04-29T06:33:38.955Z,10.67
2018-04-29T06:36:06.401Z,10.47
2018-04-29T06:38:33.862Z,20.97
2018-04-29T06:41:02.136Z,10.93
2018-04-29T06:43:31.482Z,8.90
2018-04-29T06:45:58.961Z,12.00
2018-04-29T06:48:26.416Z,12.30
2018-04-29T06:50:53.879Z,12.90
2018-04-29T06:53:21.358Z,14.10
2018-04-29T06:55:48.913Z,15.43
2018-04-29T06:58:16.399Z,12.43
2018-04-29T07:00:44.634Z,15.40
2018-04-29T07:03:12.090Z,18.07
2018-04-29T07:05:39.544Z,17.50
2018-04-29T07:08:07.027Z,14.03
2018-04-29T07:10:35.258Z,12.53
2018-04-29T07:13:02.739Z,15.30
2018-04-29T07:15:30.817Z,20.10
2018-04-29T07:17:58.289Z,12.87
2018-04-29T07:20:26.525Z,14.33
2018-04-29T07:22:54.010Z,13.10
2018-04-29T07:25:21.688Z,19.27
2018-04-29T07:27:49.909Z,9.90
2018-04-29T07:30:17.434Z,11.30
2018-04-29T07:32:47.388Z,14.10
2018-04-29T07:35:16.808Z,14.40
2018-04-29T07:37:45.005Z,13.83
2018-04-29T07:40:14.167Z,16.90
2018-04-29T07:42:42.252Z,15.90
2018-04-29T07:45:11.850Z,15.20
2018-04-29T07:47:40.096Z,15.93
2018-04-29T07:50:07.576Z,17.13
2018-04-29T07:52:35.139Z,18.60
2018-04-29T07:55:02.558Z,13.70
2018-04-29T07:57:30.025Z,23.03
2018-04-29T07:59:57.505Z,14.10
2018-04-29T08:02:24.995Z,11.90
2018-04-29T08:04:53.341Z,16.57
2018-04-29T08:07:20.861Z,17.90
2018-04-29T08:09:48.342Z,14.43
2018-04-29T08:12:15.797Z,12.20
2018-04-29T08:14:43.269Z,14.87
2018-04-29T08:17:10.749Z,16.43
2018-04-29T08:19:38.978Z,16.07
2018-04-29T08:22:06.456Z,17.27
2018-04-29T08:24:33.968Z,25.13
2018-04-29T08:27:01.422Z,16.93
2018-04-29T08:29:28.888Z,14.77
2018-04-29T08:31:56.369Z,14.13
2018-04-29T08:34:23.906Z,13.93
2018-04-29T08:36:51.368Z,18.90
2018-04-29T08:39:18.865Z,12.60
2018-04-29T08:41:46.330Z,16.70
2018-04-29T08:44:13.808Z,11.27
2018-04-29T08:46:42.065Z,15.20
2018-04-29T08:49:10.294Z,18.50
2018-04-29T08:51:37.753Z,14.23
2018-04-29T08:54:05.257Z,15.40
2018-04-29T08:56:32.722Z,20.57
2018-04-29T08:59:00.957Z,14.77
2018-04-29T09:01:28.454Z,19.60
2018-04-29T09:03:56.713Z,15.03
2018-04-29T09:06:24.169Z,18.03
2018-04-29T09:08:52.427Z,15.40
2018-04-29T09:11:19.901Z,16.00
2018-04-29T09:13:47.404Z,13.97
2018-04-29T09:16:14.920Z,10.93
2018-04-29T09:18:43.160Z,10.57
2018-04-29T09:21:10.650Z,14.43
2018-04-29T09:23:38.877Z,12.43
2018-04-29T09:26:06.345Z,10.47
2018-04-29T09:28:33.829Z,11.90
2018-04-29T09:31:02.260Z,13.07
2018-04-29T09:33:29.730Z,18.73
2018-04-29T09:35:57.278Z,14.70
2018-04-29T09:38:24.740Z,17.77
2018-04-29T09:40:52.208Z,16.50
2018-04-29T09:43:19.774Z,16.37
2018-04-29T09:45:47.945Z,17.63
2018-04-29T09:48:15.418Z,15.47
2018-04-29T09:50:43.673Z,15.70
2018-04-29T09:53:11.141Z,19.00
2018-04-29T09:55:38.667Z,17.83
2018-04-29T09:58:06.152Z,14.33
2018-04-29T10:00:33.612Z,14.83
2018-04-29T10:03:06.803Z,14.17
2018-04-29T10:05:34.257Z,16.37
2018-04-29T10:08:01.789Z,14.40
2018-04-29T10:10:29.274Z,16.10
2018-04-29T10:12:56.745Z,12.70
2018-04-29T10:15:24.217Z,16.23
2018-04-29T10:17:52.450Z,14.73
2018-04-29T10:20:19.909Z,19.97
2018-04-29T10:22:47.373Z,10.87
2018-04-29T10:25:14.850Z,12.27
2018-04-29T10:27:42.317Z,18.37
2018-04-29T10:30:10.547Z,10.77
2018-04-29T10:32:38.050Z,8.17
2018-04-29T10:35:05.505Z,10.30
2018-04-29T10:37:33.749Z,15.53
2018-04-29T10:40:01.245Z,14.30
2018-04-29T10:42:29.474Z,9.70
2018-04-29T10:44:56.936Z,11.73
2018-04-29T10:47:24.414Z,15.60
2018-04-29T10:49:51.915Z,6.50
2018-04-29T10:52:19.365Z,7.50
2018-04-29T10:54:46.849Z,7.90
2018-04-29T10:57:14.309Z,7.80
2018-04-29T10:59:41.792Z,8.40
2018-04-29T11:02:09.287Z,7.83
2018-04-29T11:04:36.733Z,6.97
2018-04-29T11:07:04.202Z,5.93
2018-04-29T11:09:31.690Z,9.27
2018-04-29T11:11:59.144Z,7.43
2018-04-29T11:14:26.605Z,8.27
2018-04-29T11:16:54.105Z,9.97
2018-04-29T11:19:22.415Z,8.73
2018-04-29T11:21:49.868Z,11.17
2018-04-29T11:24:17.350Z,12.37
2018-04-29T11:26:44.809Z,10.20
2018-04-29T11:29:13.197Z,10.27
2018-04-29T11:31:40.689Z,12.93
2018-04-29T11:34:08.912Z,9.17
2018-04-29T11:36:36.382Z,11.47
2018-04-29T11:39:03.864Z,9.60
2018-04-29T11:41:31.323Z,10.50
2018-04-29T11:43:59.541Z,10.10
2018-04-29T11:46:27.028Z,11.70
2018-04-29T11:48:54.493Z,9.80
2018-04-29T11:51:21.969Z,9.53
2018-04-29T11:53:50.239Z,12.30
2018-04-29T11:56:17.741Z,14.40
2018-04-29T11:58:45.197Z,10.07
2018-04-29T12:01:13.445Z,13.77
2018-04-29T12:03:41.676Z,12.03
2018-04-29T12:06:09.132Z,9.60
2018-04-29T12:08:36.634Z,9.87
2018-04-29T12:11:04.869Z,9.07
2018-04-29T12:13:32.337Z,9.33
2018-04-29T12:15:59.824Z,8.57
2018-04-29T12:18:28.071Z,8.70
2018-04-29T12:20:55.525Z,9.43
2018-04-29T12:23:23.011Z,9.40
2018-04-29T12:25:50.496Z,9.60
2018-04-29T12:28:17.956Z,7.20
2018-04-29T12:30:45.441Z,7.10
2018-04-29T12:33:12.897Z,9.17
2018-04-29T12:35:40.365Z,7.33
2018-04-29T12:38:07.853Z,11.23
2018-04-29T12:40:36.077Z,8.97
2018-04-29T12:43:03.548Z,7.87
2018-04-29T12:45:31.047Z,7.50
2018-04-29T12:47:58.519Z,10.13
2018-04-29T12:50:25.973Z,8.37
2018-04-29T12:52:54.205Z,8.80
2018-04-29T12:55:21.666Z,6.77
2018-04-29T12:57:49.933Z,8.57
2018-04-29T13:00:18.215Z,9.30
2018-04-29T13:02:45.653Z,6.93
2018-04-29T13:05:13.123Z,9.47
2018-04-29T13:07:40.608Z,6.20
2018-04-29T13:10:08.080Z,10.60
2018-04-29T13:12:35.581Z,7.83
2018-04-29T13:15:03.067Z,9.87
2018-04-29T13:17:31.315Z,5.93
2018-04-29T13:19:58.784Z,7.40
2018-04-29T13:22:26.336Z,9.10
2018-04-29T13:24:53.797Z,11.40
2018-04-29T13:27:21.373Z,8.60
2018-04-29T13:29:49.606Z,4.93
2018-04-29T13:32:17.062Z,9.00
2018-04-29T13:34:44.537Z,8.20
2018-04-29T13:37:12.014Z,7.13
2018-04-29T13:39:40.237Z,14.53
2018-04-29T13:42:07.720Z,8.33
2018-04-29T13:44:35.187Z,6.33
2018-04-29T13:47:02.642Z,11.83
2018-04-29T13:49:30.116Z,7.23
2018-04-29T13:51:58.347Z,8.87
2018-04-29T13:54:25.839Z,8.60
2018-04-29T13:56:54.064Z,6.40
2018-04-29T13:59:21.552Z,9.60
2018-04-29T14:01:49.062Z,19.10
2018-04-29T14:04:16.532Z,10.00
2018-04-29T14:06:44.014Z,8.00
2018-04-29T14:09:11.508Z,13.40
2018-04-29T14:11:39.745Z,9.73
2018-04-29T14:14:07.209Z,7.80
2018-04-29T14:16:34.724Z,7.40
2018-04-29T14:19:02.299Z,7.73
2018-04-29T14:21:29.754Z,11.60
2018-04-29T14:23:57.221Z,9.53
2018-04-29T14:26:24.687Z,10.17
2018-04-29T14:28:52.168Z,7.90
2018-04-29T14:31:19.683Z,10.60
2018-04-29T14:33:47.129Z,6.60
2018-04-29T14:36:14.629Z,6.93
2018-04-29T14:38:42.097Z,14.60
2018-04-29T14:41:10.337Z,9.00
2018-04-29T14:43:37.827Z,9.07
2018-04-29T14:46:05.288Z,6.10
2018-04-29T14:48:33.576Z,7.53
2018-04-29T14:51:01.034Z,8.50
2018-04-29T14:53:29.268Z,5.50
2018-04-29T14:55:56.797Z,9.03
2018-04-29T14:58:24.239Z,5.73
2018-04-29T15:00:51.740Z,7.80
2018-04-29T15:03:19.204Z,7.93
2018-04-29T15:05:46.680Z,7.33
2018-04-29T15:08:14.154Z,7.30
2018-04-29T15:10:41.628Z,10.03
2018-04-29T15:13:09.124Z,8.40
2018-04-29T15:15:36.732Z,7.90
2018-04-29T15:18:04.181Z,6.90
2018-04-29T15:20:31.650Z,7.97
2018-04-29T15:22:59.124Z,11.50
2018-04-29T15:25:26.586Z,7.27
2018-04-29T15:27:55.019Z,10.20
2018-04-29T15:30:23.262Z,7.83
2018-04-29T15:32:50.735Z,10.50
2018-04-29T15:35:18.223Z,11.10
2018-04-29T15:37:45.700Z,10.47
2018-04-29T15:40:13.184Z,6.77
2018-04-29T15:42:40.669Z,9.20
2018-04-29T15:45:08.888Z,7.70
2018-04-29T15:47:36.354Z,9.80
2018-04-29T15:50:03.838Z,6.67
2018-04-29T15:52:31.300Z,9.53
2018-04-29T15:54:58.756Z,9.83
2018-04-29T15:57:26.268Z,6.70
2018-04-29T15:59:53.724Z,10.00
2018-04-29T16:02:21.192Z,7.23
2018-04-29T16:04:48.665Z,6.07
2018-04-29T16:07:16.172Z,6.40
2018-04-29T16:09:44.392Z,8.20
2018-04-29T16:12:11.873Z,7.50
2018-04-29T16:14:39.340Z,13.23
2018-04-29T16:17:07.578Z,12.90
2018-04-29T16:19:35.075Z,11.90
2018-04-29T16:22:03.300Z,11.30
2018-04-29T16:24:30.756Z,11.63
2018-04-29T16:26:58.232Z,9.53
2018-04-29T16:29:25.741Z,9.80
2018-04-29T16:31:53.958Z,12.97
2018-04-29T16:34:21.575Z,11.03
2018-04-29T16:36:49.813Z,6.87
2018-04-29T16:39:17.279Z,8.90
2018-04-29T16:41:44.860Z,8.50
2018-04-29T16:44:13.093Z,17.40
2018-04-29T16:46:40.569Z,14.27
2018-04-29T16:49:08.045Z,19.00
2018-04-29T16:51:36.298Z,10.00
2018-04-29T16:54:03.903Z,14.80
2018-04-29T16:56:31.391Z,13.77
2018-04-29T16:58:58.845Z,12.80
2018-04-29T17:01:26.336Z,8.60
2018-04-29T17:03:54.586Z,11.37
2018-04-29T17:06:22.044Z,10.83
2018-04-29T17:08:50.665Z,10.30
2018-04-29T17:11:18.896Z,6.77
2018-04-29T17:13:46.361Z,11.40
2018-04-29T17:16:13.859Z,11.63
2018-04-29T17:18:41.402Z,15.90
2018-04-29T17:21:09.699Z,13.10
2018-04-29T17:23:38.046Z,13.83
2018-04-29T17:26:07.121Z,10.63
2018-04-29T17:28:35.169Z,13.07
2018-04-29T17:31:02.645Z,15.17
2018-04-29T17:33:30.913Z,14.03
2018-04-29T17:35:58.968Z,12.70
2018-04-29T17:38:26.453Z,13.57
2018-04-29T17:40:53.919Z,10.23
2018-04-29T17:43:23.138Z,12.43
2018-04-29T17:45:51.738Z,17.97
2018-04-29T17:48:19.194Z,9.27
2018-04-29T17:50:47.548Z,13.30
2018-04-29T17:53:15.802Z,10.43
2018-04-29T17:55:43.277Z,12.60
2018-04-29T17:58:11.506Z,18.97
2018-04-29T18:00:39.000Z,18.27
2018-04-29T18:03:07.236Z,12.10
2018-04-29T18:05:34.700Z,16.23
2018-04-29T18:08:02.192Z,10.63
2018-04-29T18:10:30.425Z,10.43
2018-04-29T18:12:57.902Z,11.63
2018-04-29T18:15:25.369Z,18.20
2018-04-29T18:17:52.831Z,14.90
2018-04-29T18:20:20.297Z,14.33
2018-04-29T18:22:48.551Z,13.50
2018-04-29T18:25:16.016Z,14.57
2018-04-29T18:27:43.555Z,10.77
2018-04-29T18:30:10.998Z,17.00
2018-04-29T18:32:38.466Z,13.80
2018-04-29T18:35:05.951Z,14.93
2018-04-29T18:37:33.451Z,18.53
2018-04-29T18:40:00.915Z,16.50
2018-04-29T18:42:28.373Z,13.33
2018-04-29T18:44:55.884Z,23.23
2018-04-29T18:47:23.361Z,11.77
2018-04-29T18:49:51.616Z,17.60
2018-04-29T18:52:19.890Z,13.20
2018-04-29T18:54:48.143Z,11.63
2018-04-29T18:57:15.628Z,14.73
2018-04-29T18:59:43.878Z,11.60
2018-04-29T19:02:12.130Z,16.30
2018-04-29T19:04:39.592Z,24.40
2018-04-29T19:07:07.094Z,15.17
2018-04-29T19:09:35.330Z,17.20
2018-04-29T19:12:02.800Z,16.07
2018-04-29T19:14:31.068Z,10.70
2018-04-29T19:16:58.541Z,15.27
2018-04-29T19:19:26.799Z,11.87
2018-04-29T19:21:54.259Z,13.97
2018-04-29T19:24:21.743Z,17.33
2018-04-29T19:26:49.997Z,12.10
2018-04-29T19:29:17.530Z,23.90
2018-04-29T19:31:45.033Z,13.37
2018-04-29T19:34:13.348Z,9.97
2018-04-29T19:36:40.813Z,16.17
2018-04-29T19:39:08.301Z,14.20
2018-04-29T19:41:35.768Z,9.30
2018-04-29T19:44:04.010Z,14.40
2018-04-29T19:46:31.522Z,14.47
2018-04-29T19:48:59.760Z,12.83
2018-04-29T19:51:28.561Z,17.50
2018-04-29T19:53:56.698Z,13.83
2018-04-29T19:56:24.179Z,14.50
2018-04-29T19:58:51.689Z,10.27
2018-04-29T20:01:19.249Z,13.77
2018-04-29T20:03:46.760Z,11.00
2018-04-29T20:06:14.248Z,15.63
2018-04-29T20:08:42.473Z,11.97
2018-04-29T20:11:09.966Z,15.13
2018-04-29T20:13:38.221Z,15.70
2018-04-29T20:16:05.697Z,12.90
2018-04-29T20:18:34.071Z,17.67
2018-04-29T20:21:01.562Z,17.00
2018-04-29T20:23:29.039Z,14.00
2018-04-29T20:25:56.536Z,16.40
2018-04-29T20:28:24.788Z,16.70
2018-04-29T20:30:52.245Z,11.53
2018-04-29T20:33:19.763Z,14.87
2018-04-29T20:35:47.284Z,13.07
2018-04-29T20:38:14.779Z,15.20
2018-04-29T20:40:42.242Z,10.70
2018-04-29T20:43:09.712Z,10.80
2018-04-29T20:45:37.242Z,13.43
2018-04-29T20:48:04.709Z,15.00
2018-04-29T20:50:32.177Z,13.17
2018-04-29T20:52:59.686Z,11.57
2018-04-29T20:55:27.910Z,12.97
2018-04-29T20:57:55.383Z,12.77
2018-04-29T21:00:22.876Z,14.40
2018-04-29T21:02:51.133Z,15.27
2018-04-29T21:05:18.714Z,20.93
2018-04-29T21:07:46.962Z,23.43
2018-04-29T21:10:14.428Z,27.93
2018-04-29T21:12:42.657Z,37.83
2018-04-29T21:15:10.142Z,46.93
2018-04-29T21:17:37.612Z,38.77
2018-04-29T21:20:05.173Z,43.87
2018-04-29T21:22:32.711Z,47.50
2018-04-29T21:25:00.145Z,52.83
2018-04-29T21:27:27.652Z,53.37
2018-04-29T21:29:55.892Z,55.83
2018-04-29T21:32:23.369Z,58.73
2018-04-29T21:34:50.916Z,59.77
2018-04-29T21:37:18.461Z,60.83
2018-04-29T21:39:45.925Z,61.73
2018-04-29T21:42:13.413Z,61.97
2018-04-29T21:44:41.651Z,70.87
2018-04-29T21:47:09.121Z,70.10
2018-04-29T21:49:36.612Z,70.93
2018-04-29T21:52:04.836Z,68.27
2018-04-29T21:54:32.373Z,72.73
2018-04-29T21:56:59.864Z,71.10
2018-04-29T21:59:27.346Z,70.50
2018-04-29T22:01:54.906Z,68.20
2018-04-29T22:04:22.464Z,55.77
2018-04-29T22:06:49.888Z,68.97
2018-04-29T22:09:17.349Z,72.13
2018-04-29T22:11:44.846Z,59.27
2018-04-29T22:14:13.076Z,35.10
2018-04-29T22:16:40.545Z,48.57
2018-04-29T22:19:08.164Z,51.07
2018-04-29T22:21:35.710Z,47.60
2018-04-29T22:24:03.109Z,38.47
2018-04-29T22:26:30.589Z,33.30
2018-04-29T22:28:58.052Z,38.93
2018-04-29T22:31:26.408Z,30.77
2018-04-29T22:33:53.879Z,37.33
2018-04-29T22:36:21.343Z,41.43
2018-04-29T22:38:49.600Z,48.57
2018-04-29T22:41:17.061Z,37.50
2018-04-29T22:43:44.529Z,48.00
2018-04-29T22:46:12.781Z,39.57
2018-04-29T22:48:40.252Z,44.73
2018-04-29T22:51:07.716Z,48.40
2018-04-29T22:53:35.964Z,48.53
2018-04-29T22:56:03.425Z,49.70
2018-04-29T22:58:30.893Z,48.10
2018-04-29T23:00:58.402Z,45.37
2018-04-29T23:03:25.870Z,38.43
2018-04-29T23:05:53.353Z,50.40
2018-04-29T23:08:20.828Z,43.93
2018-04-29T23:10:48.298Z,45.00
2018-04-29T23:13:15.889Z,43.17
2018-04-29T23:15:43.348Z,40.50
2018-04-29T23:18:10.812Z,44.27
2018-04-29T23:20:38.297Z,38.57
2018-04-29T23:23:05.777Z,33.00
2018-04-29T23:25:34.029Z,39.30
2018-04-29T23:28:01.520Z,42.97
2018-04-29T23:30:29.748Z,51.73
2018-04-29T23:32:57.212Z,44.60
2018-04-29T23:35:24.795Z,44.10
2018-04-29T23:37:52.221Z,35.30
2018-04-29T23:40:19.697Z,15.33
2018-04-29T23:42:47.174Z,22.00
2018-04-29T23:45:15.405Z,25.33
2018-04-29T23:47:42.913Z,30.00
2018-04-29T23:50:11.152Z,28.37
2018-04-29T23:52:40.183Z,25.50
2018-04-29T23:55:08.408Z,22.53
2018-04-29T23:57:35.887Z,23.43
